Pagina principale
METAR-TAF:

METAR-TAF

Aeroporti :

Aeroporto di Napoli-Capodichino

Napoli, Italia

latitudine: 40-51N, longitudine: 014-18E, altezza: 88 m

Osservazione

Il bollettino è stato emesso 44 minuti fa, alle 12:20 UTC
Vento 8 kt da sud, variando fra sud-est e sud-ovest
Temperature 13°C
Umidità 58%
Pressione 1018 hPa
Visibilità 10 km o più
Nuvoloso ad un'altezza di 6500 ft

METAR: LIRN 171220Z 18008KT 140V220 9999 BKN065 13/05 Q1018 NOSIG

Ora: 14:04 (13:04 UTC)

Previsione

Il bollettino è stato emesso 2 ore e 4 minuti fa, alle 11:00 UTC
Previsione valida dal 17 alle 12 UTC al 18 alle 12 UTC
Vento 12 kt da sud
Visibilità 10 km o più
Nubi sparse ad un'altezza di 3000 ft
Temporaneamente
dal 17 alle 18 UTC al 18 alle 12 UTC
pioggia

TAF: LIRN 171100Z 1712/1812 19012KT 9999 SCT030 TEMPO 1718/1812 RA

Osservazioni e previsioni meteorologiche di più di 4000 aeroporti (messaggi METAR e TAF).

Le stazioni disponibili sono rappresentate dai dischi gialli e rossi sulla carta.

Puntare il mouse per vedere il nome della stazione.

Clicca sopra per visualizzare le osservazioni e previsioni meteorologiche.

Per cambiare la mappa : fare clic sui pulsanti verdi con una croce nera per ingrandire, il pulsante verde con un trattino per diminuire, o sulla freccia verde per le mappe adiacenti.


METAR-TAF: